Time;durP1;ratioP1;P1;durP2;ratioP2;P2;SDS_P1;SDS_P2;PMS_P1;PMS_P2;Temp;Humidity;BMP_temperature;BMP_pressure;BME280_temperature;BME280_humidity;BME280_pressure;Samples;Min_cycle;Max_cycle;Signal;HPM_P1;HPM_P2
2023/04/11 00:01:44;;;;;;;6.35;1.20;;;;;;;13.77;100.00;98368.97;5001116;28;20186;-56
2023/04/11 00:04:10;;;;;;;3.28;1.25;;;;;;;13.70;100.00;98360.94;4998833;28;20053;-56
2023/04/11 00:06:35;;;;;;;4.03;0.95;;;;;;;13.63;100.00;98333.00;4994223;28;20026;-55
2023/04/11 00:09:01;;;;;;;2.42;1.10;;;;;;;13.66;100.00;98342.59;5008061;28;20036;-56
2023/04/11 00:11:27;;;;;;;4.15;1.42;;;;;;;13.68;100.00;98324.16;4996922;28;20026;-56
2023/04/11 00:13:56;;;;;;;2.10;1.10;;;;;;;13.69;100.00;98326.63;4998363;28;20022;-56
2023/04/11 00:16:23;;;;;;;2.55;1.13;;;;;;;13.74;100.00;98317.78;4994040;28;20177;-56
2023/04/11 00:18:49;;;;;;;2.10;1.08;;;;;;;13.61;100.00;98283.50;5000039;28;20397;-55
2023/04/11 00:21:15;;;;;;;3.00;0.90;;;;;;;13.75;100.00;98305.81;5000585;28;20038;-55
2023/04/11 00:23:40;;;;;;;1.45;1.02;;;;;;;13.67;100.00;98307.00;4996273;28;20037;-56
2023/04/11 00:26:06;;;;;;;2.83;1.30;;;;;;;13.54;100.00;98297.19;5019308;28;20060;-56
2023/04/11 00:28:32;;;;;;;3.97;0.80;;;;;;;13.55;100.00;98296.13;4997496;28;20436;-56
2023/04/11 00:30:57;;;;;;;2.72;1.00;;;;;;;13.54;100.00;98290.91;5004680;28;20034;-56
2023/04/11 00:33:22;;;;;;;5.80;1.20;;;;;;;13.50;100.00;98290.56;4996754;28;20099;-56
2023/04/11 00:35:48;;;;;;;2.97;0.75;;;;;;;13.46;100.00;98302.13;5003967;28;20417;-56
2023/04/11 00:38:14;;;;;;;3.63;1.30;;;;;;;13.48;100.00;98309.00;5003144;28;20393;-56
2023/04/11 00:40:39;;;;;;;1.52;1.00;;;;;;;13.43;100.00;98305.31;4990078;28;20501;-56
2023/04/11 00:43:04;;;;;;;1.88;0.85;;;;;;;13.35;100.00;98304.59;4996816;28;20029;-56
2023/04/11 00:45:30;;;;;;;2.35;0.90;;;;;;;13.25;100.00;98293.44;5003041;28;20052;-56
2023/04/11 00:47:56;;;;;;;2.45;1.10;;;;;;;13.23;100.00;98297.44;4996354;28;20022;-56
2023/04/11 00:50:23;;;;;;;0.93;0.85;;;;;;;13.15;100.00;98288.59;4994666;28;20444;-56
2023/04/11 00:52:50;;;;;;;1.85;1.08;;;;;;;13.02;100.00;98277.09;4993168;28;20018;-56
2023/04/11 00:55:16;;;;;;;6.53;1.20;;;;;;;12.88;100.00;98288.16;4996933;28;20033;-56
2023/04/11 00:57:42;;;;;;;1.90;1.00;;;;;;;12.84;100.00;98286.16;5001131;28;20025;-56
2023/04/11 01:00:09;;;;;;;3.42;1.08;;;;;;;12.82;100.00;98282.84;5012833;28;20112;-56
2023/04/11 01:02:36;;;;;;;2.05;1.33;;;;;;;12.77;100.00;98279.97;4989041;28;20725;-56
2023/04/11 01:05:04;;;;;;;1.70;1.10;;;;;;;12.83;100.00;98277.16;4993014;28;20397;-63
2023/04/11 01:07:31;;;;;;;5.32;1.50;;;;;;;12.82;100.00;98290.97;5006904;28;20467;-64
2023/04/11 01:09:59;;;;;;;3.33;1.30;;;;;;;12.70;100.00;98291.72;5005074;28;20033;-64
2023/04/11 01:12:24;;;;;;;4.55;1.30;;;;;;;12.69;100.00;98300.94;4991212;28;20497;-64
2023/04/11 01:14:50;;;;;;;2.92;1.17;;;;;;;12.55;100.00;98304.06;4996103;28;20108;-64
2023/04/11 01:17:15;;;;;;;2.30;0.95;;;;;;;12.53;100.00;98311.63;4992555;28;20390;-64
2023/04/11 01:19:41;;;;;;;2.78;1.00;;;;;;;12.47;100.00;98330.47;4989773;28;20465;-64
2023/04/11 01:22:09;;;;;;;2.40;1.20;;;;;;;12.33;100.00;98325.41;4995131;28;20401;-64
2023/04/11 01:24:34;;;;;;;3.75;1.23;;;;;;;12.09;100.00;98327.97;4997116;28;20030;-64
2023/04/11 01:27:02;;;;;;;7.13;1.23;;;;;;;11.79;100.00;98325.13;4991301;28;20030;-65
2023/04/11 01:29:27;;;;;;;2.15;1.05;;;;;;;11.63;100.00;98335.47;4985826;28;20041;-65
2023/04/11 01:31:53;;;;;;;2.97;1.30;;;;;;;11.56;100.00;98345.53;4993245;28;20033;-65
2023/04/11 01:34:20;;;;;;;4.55;1.30;;;;;;;11.48;100.00;98348.50;5001541;28;20057;-64
2023/04/11 01:36:46;;;;;;;3.65;1.38;;;;;;;11.42;100.00;98365.63;4992962;28;20165;-65
2023/04/11 01:39:12;;;;;;;4.80;1.40;;;;;;;11.36;100.00;98358.38;4990621;28;20029;-65
2023/04/11 01:41:38;;;;;;;3.17;1.35;;;;;;;11.24;100.00;98360.97;4997620;28;20036;-65
2023/04/11 01:44:04;;;;;;;2.90;1.50;;;;;;;11.13;100.00;98348.97;5006832;28;20370;-65
2023/04/11 01:46:30;;;;;;;2.83;1.30;;;;;;;11.08;100.00;98370.44;5001072;28;20085;-65
2023/04/11 01:48:57;;;;;;;2.55;1.45;;;;;;;11.09;100.00;98390.22;4995919;28;20461;-65
2023/04/11 01:51:22;;;;;;;4.68;1.60;;;;;;;10.96;100.00;98399.25;4993534;28;20501;-65
2023/04/11 01:53:48;;;;;;;3.35;1.73;;;;;;;11.02;100.00;98401.06;4994715;28;20045;-65
2023/04/11 01:56:14;;;;;;;4.18;1.77;;;;;;;10.93;100.00;98410.50;5006577;28;20369;-65
2023/04/11 01:58:40;;;;;;;2.92;1.80;;;;;;;10.83;100.00;98416.38;5010138;28;20556;-65
2023/04/11 02:01:06;;;;;;;3.38;1.80;;;;;;;10.78;100.00;98407.22;4985649;28;20026;-65
2023/04/11 02:03:31;;;;;;;3.17;1.92;;;;;;;10.70;100.00;98417.25;5010280;28;20034;-65
2023/04/11 02:05:56;;;;;;;3.65;1.83;;;;;;;10.66;100.00;98429.56;4993998;28;20478;-65
2023/04/11 02:08:22;;;;;;;1.80;1.20;;;;;;;10.62;100.00;98409.38;4996105;28;20382;-64
2023/04/11 02:10:47;;;;;;;1.63;1.20;;;;;;;10.60;100.00;98383.56;4994666;28;20545;-64
2023/04/11 02:13:13;;;;;;;2.38;1.15;;;;;;;10.53;100.00;98383.59;5002726;28;20474;-64
2023/04/11 02:15:38;;;;;;;2.13;1.08;;;;;;;10.47;100.00;98390.69;5005886;28;20056;-64
2023/04/11 02:18:05;;;;;;;2.22;1.27;;;;;;;10.43;100.00;98402.16;4995224;28;20072;-64
2023/04/11 02:20:31;;;;;;;2.80;1.30;;;;;;;10.40;100.00;98398.00;4989140;28;20037;-64
2023/04/11 02:22:57;;;;;;;5.13;1.08;;;;;;;10.39;100.00;98393.63;4993802;28;20036;-64
2023/04/11 02:25:23;;;;;;;1.45;0.90;;;;;;;10.37;100.00;98395.69;4992044;28;20044;-64
2023/04/11 02:27:48;;;;;;;2.33;1.15;;;;;;;10.36;100.00;98401.34;4992582;28;20026;-64
2023/04/11 02:30:13;;;;;;;1.00;0.80;;;;;;;10.25;100.00;98384.69;4991296;28;20116;-64
2023/04/11 02:32:39;;;;;;;1.52;0.88;;;;;;;10.22;100.00;98401.34;4993868;28;20088;-64
2023/04/11 02:35:06;;;;;;;4.70;0.93;;;;;;;10.28;100.00;98419.44;5003654;28;20036;-64
2023/04/11 02:37:32;;;;;;;1.52;0.80;;;;;;;10.12;100.00;98421.72;4992856;28;20432;-64
2023/04/11 02:39:57;;;;;;;1.30;0.85;;;;;;;10.03;100.00;98430.06;4986133;28;20029;-64
2023/04/11 02:42:23;;;;;;;1.73;0.85;;;;;;;9.95;100.00;98434.81;4995606;28;20022;-65
2023/04/11 02:44:48;;;;;;;4.30;0.90;;;;;;;9.88;100.00;98426.75;5005857;28;20473;-65
2023/04/11 02:47:13;;;;;;;1.88;0.70;;;;;;;9.86;100.00;98432.34;4996506;28;20537;-65
2023/04/11 02:49:41;;;;;;;1.23;0.75;;;;;;;9.81;100.00;98434.00;4991634;28;20037;-65
2023/04/11 02:52:06;;;;;;;1.48;0.88;;;;;;;9.79;100.00;98436.91;4994999;28;20013;-65
2023/04/11 02:54:32;;;;;;;1.30;0.70;;;;;;;9.75;100.00;98424.88;5004226;28;20440;-66
2023/04/11 02:56:57;;;;;;;1.35;0.70;;;;;;;9.66;100.00;98424.22;5004415;28;20461;-65
2023/04/11 02:59:22;;;;;;;3.20;0.80;;;;;;;9.65;100.00;98427.13;4993087;28;20037;-65
2023/04/11 03:01:48;;;;;;;2.33;0.77;;;;;;;9.62;100.00;98430.25;4999505;28;20021;-65
2023/04/11 03:04:13;;;;;;;1.95;0.85;;;;;;;9.62;100.00;98424.84;4992446;28;20053;-64
2023/04/11 03:06:39;;;;;;;1.08;0.70;;;;;;;9.54;100.00;98417.78;4990916;28;20113;-65
2023/04/11 03:09:04;;;;;;;1.80;0.55;;;;;;;9.56;100.00;98422.97;4987562;28;20030;-65
2023/04/11 03:11:30;;;;;;;3.58;0.70;;;;;;;9.46;100.00;98436.03;5002902;28;20022;-65
2023/04/11 03:13:55;;;;;;;2.58;0.52;;;;;;;9.40;100.00;98446.63;4994993;28;20049;-65
2023/04/11 03:16:21;;;;;;;0.70;0.50;;;;;;;9.41;100.00;98459.09;4992794;28;20025;-65
2023/04/11 03:18:46;;;;;;;1.70;0.63;;;;;;;9.44;100.00;98455.97;4994593;28;20037;-65
2023/04/11 03:21:12;;;;;;;1.80;0.82;;;;;;;9.42;100.00;98451.81;4995915;28;20109;-65
2023/04/11 03:23:37;;;;;;;1.27;0.70;;;;;;;9.46;100.00;98452.22;4993155;28;20128;-66
2023/04/11 03:26:04;;;;;;;2.67;0.88;;;;;;;9.44;100.00;98463.25;4996125;28;20371;-65
2023/04/11 03:28:30;;;;;;;1.75;0.70;;;;;;;9.50;100.00;98459.72;5010867;28;20093;-65
2023/04/11 03:30:55;;;;;;;1.65;0.80;;;;;;;9.44;100.00;98445.19;4993873;28;20041;-65
2023/04/11 03:33:20;;;;;;;2.45;0.90;;;;;;;9.47;100.00;98453.91;4994945;28;20025;-65
2023/04/11 03:35:45;;;;;;;4.22;1.10;;;;;;;9.37;100.00;98463.22;4994677;28;20025;-64
2023/04/11 03:38:11;;;;;;;1.67;0.70;;;;;;;9.35;100.00;98456.38;4992833;28;20038;-65
2023/04/11 03:40:36;;;;;;;1.65;0.90;;;;;;;9.30;100.00;98467.78;4994781;28;20512;-66
2023/04/11 03:43:02;;;;;;;2.03;1.00;;;;;;;9.29;100.00;98470.69;4995461;28;20354;-66
2023/04/11 03:45:27;;;;;;;1.50;0.80;;;;;;;9.26;100.00;98454.91;4997291;28;20116;-67
2023/04/11 03:47:53;;;;;;;3.40;0.93;;;;;;;9.39;100.00;98469.25;4993101;28;20146;-66
2023/04/11 03:50:18;;;;;;;1.85;1.08;;;;;;;9.32;100.00;98463.00;4996907;28;20037;-67
2023/04/11 03:55:17;;;;;;;1.23;1.00;;;;;;;9.33;100.00;98453.06;4947532;28;20392;-68
2023/04/11 03:57:42;;;;;;;2.45;1.00;;;;;;;9.30;100.00;98462.41;4949245;28;20030;-69
2023/04/11 04:00:11;;;;;;;1.73;1.10;;;;;;;9.32;100.00;98460.31;4961165;28;20034;-68
2023/04/11 04:02:37;;;;;;;4.20;1.10;;;;;;;9.23;100.00;98456.13;4964716;28;20027;-67
2023/04/11 04:05:03;;;;;;;2.28;0.90;;;;;;;9.15;100.00;98461.72;4946849;28;20050;-63
2023/04/11 04:07:29;;;;;;;4.60;0.98;;;;;;;9.09;100.00;98457.13;4962848;28;20033;-64
2023/04/11 04:09:54;;;;;;;2.28;0.93;;;;;;;9.03;100.00;98460.63;4948050;28;20030;-64
2023/04/11 04:12:20;;;;;;;3.35;0.90;;;;;;;8.96;100.00;98456.06;4970247;28;20133;-63
2023/04/11 04:14:46;;;;;;;1.98;0.82;;;;;;;9.01;100.00;98455.44;4972886;28;20035;-63
2023/04/11 04:17:13;;;;;;;3.80;1.00;;;;;;;8.94;100.00;98449.19;4954633;28;20546;-63
2023/04/11 04:19:39;;;;;;;2.28;0.85;;;;;;;8.81;100.00;98463.44;4953446;28;20367;-64
2023/04/11 04:22:10;;;;;;;2.30;0.70;;;;;;;8.84;100.00;98464.91;4955329;28;20110;-64
2023/04/11 04:24:41;;;;;;;3.25;1.00;;;;;;;8.79;100.00;98476.31;4954943;28;20126;-64
2023/04/11 04:27:10;;;;;;;3.17;0.90;;;;;;;8.75;100.00;98486.66;4981216;28;20034;-64
2023/04/11 04:29:45;;;;;;;1.13;0.47;;;;;;;8.72;100.00;98484.38;4964787;28;20098;-64
2023/04/11 04:32:22;;;;;;;1.50;0.98;;;;;;;8.66;100.00;98487.03;4982417;28;20030;-64
2023/04/11 04:34:53;;;;;;;4.22;0.85;;;;;;;8.55;100.00;98491.94;4972271;28;20113;-70
2023/04/11 04:37:21;;;;;;;1.75;0.73;;;;;;;8.53;100.00;98503.94;4972380;28;20466;-71
2023/04/11 04:39:54;;;;;;;1.85;1.00;;;;;;;8.50;100.00;98512.44;4978435;28;20023;-72
2023/04/11 04:42:24;;;;;;;10.13;1.35;;;;;;;8.56;100.00;98514.34;4976651;28;20014;-71
2023/04/11 04:44:50;;;;;;;1.08;0.80;;;;;;;8.52;100.00;98513.09;4975256;28;20039;-70
2023/04/11 04:47:17;;;;;;;3.50;0.82;;;;;;;8.45;100.00;98509.50;4968855;28;20030;-70
2023/04/11 04:49:43;;;;;;;3.00;0.82;;;;;;;8.40;100.00;98504.69;4960103;28;20033;-70
2023/04/11 04:52:09;;;;;;;4.45;0.95;;;;;;;8.43;100.00;98498.06;4956656;28;20023;-70
2023/04/11 04:54:35;;;;;;;5.00;0.93;;;;;;;8.47;100.00;98510.97;4981154;28;20081;-71
2023/04/11 04:57:00;;;;;;;3.72;0.75;;;;;;;8.43;100.00;98520.47;4995925;28;20026;-70
2023/04/11 04:59:26;;;;;;;5.57;0.57;;;;;;;8.43;100.00;98517.78;4991335;28;20046;-71
2023/04/11 05:01:53;;;;;;;2.65;0.75;;;;;;;8.40;100.00;98523.56;4956050;28;20081;-71
2023/04/11 05:04:19;;;;;;;2.45;0.68;;;;;;;8.40;100.00;98528.94;4961706;28;20522;-70
2023/04/11 05:06:45;;;;;;;3.50;0.85;;;;;;;8.38;100.00;98535.53;4952657;28;20069;-70
2023/04/11 05:09:13;;;;;;;5.85;1.00;;;;;;;8.35;100.00;98540.28;4992036;28;20022;-70
2023/04/11 05:11:39;;;;;;;4.20;0.80;;;;;;;8.35;100.00;98548.38;4969041;28;20105;-70
2023/04/11 05:14:04;;;;;;;5.07;1.15;;;;;;;8.33;100.00;98557.69;4977350;28;20522;-71
2023/04/11 05:16:30;;;;;;;2.65;0.75;;;;;;;8.32;100.00;98558.72;4988431;28;20085;-70
2023/04/11 05:18:55;;;;;;;2.28;0.50;;;;;;;8.34;100.00;98565.59;4973757;28;20037;-70
2023/04/11 05:21:22;;;;;;;5.10;0.77;;;;;;;8.34;100.00;98575.53;4969958;28;20033;-71
2023/04/11 05:23:47;;;;;;;7.38;0.85;;;;;;;8.25;100.00;98574.84;4968188;28;20113;-71
2023/04/11 05:26:13;;;;;;;3.85;0.70;;;;;;;8.29;100.00;98573.41;4971034;28;20105;-70
2023/04/11 05:28:40;;;;;;;3.33;0.82;;;;;;;8.16;100.00;98573.31;4982215;28;20030;-69
2023/04/11 05:31:07;;;;;;;9.43;1.10;;;;;;;8.15;100.00;98560.00;4957235;28;20634;-70
2023/04/11 05:33:33;;;;;;;3.03;0.90;;;;;;;8.21;100.00;98572.72;4942422;28;20035;-69
2023/04/11 05:35:59;;;;;;;1.77;0.68;;;;;;;8.13;100.00;98574.53;4965792;28;20030;-69
2023/04/11 05:38:25;;;;;;;1.25;0.45;;;;;;;8.09;100.00;98564.31;4947646;28;20026;-69
2023/04/11 05:40:50;;;;;;;3.30;0.80;;;;;;;8.11;100.00;98556.88;4973894;28;20378;-69
2023/04/11 05:43:16;;;;;;;2.95;0.45;;;;;;;8.11;100.00;98548.78;4970141;28;20081;-70
2023/04/11 05:45:46;;;;;;;1.55;0.47;;;;;;;8.12;100.00;98551.31;4974241;28;20506;-68
2023/04/11 05:48:13;;;;;;;3.30;0.50;;;;;;;8.16;100.00;98561.69;4965262;28;20472;-68
2023/04/11 05:50:39;;;;;;;3.42;0.85;;;;;;;8.13;100.00;98571.00;4974481;28;20057;-68
2023/04/11 05:53:04;;;;;;;4.70;0.65;;;;;;;8.10;100.00;98566.84;4959431;28;20046;-64
2023/04/11 05:55:30;;;;;;;1.73;0.88;;;;;;;8.01;100.00;98559.06;4971703;28;20035;-63
2023/04/11 05:57:56;;;;;;;5.25;0.60;;;;;;;8.03;100.00;98570.50;4977623;28;20481;-64
2023/04/11 06:00:23;;;;;;;0.70;0.50;;;;;;;8.03;100.00;98586.66;4978324;28;20394;-64
2023/04/11 06:02:49;;;;;;;2.17;0.43;;;;;;;7.97;100.00;98580.19;4991966;28;20027;-64
2023/04/11 06:05:25;;;;;;;2.58;0.45;;;;;;;7.95;100.00;98576.84;4966836;28;20030;-63
2023/04/11 06:07:52;;;;;;;3.30;0.82;;;;;;;7.97;100.00;98584.75;4962735;28;20027;-64
2023/04/11 06:10:17;;;;;;;1.50;0.50;;;;;;;7.97;100.00;98566.72;4954305;28;22238;-64
2023/04/11 06:12:42;;;;;;;1.35;0.45;;;;;;;8.02;100.00;98579.59;4968718;28;20053;-64
2023/04/11 06:15:10;;;;;;;4.82;0.60;;;;;;;8.10;100.00;98584.88;4969742;28;20493;-64
2023/04/11 06:17:36;;;;;;;2.38;0.80;;;;;;;8.17;100.00;98590.28;4954612;28;20065;-64
2023/04/11 06:20:02;;;;;;;2.15;0.47;;;;;;;8.11;100.00;98583.81;4966804;28;20078;-65
2023/04/11 06:22:27;;;;;;;3.17;0.85;;;;;;;8.16;100.00;98585.94;4974924;28;20034;-64
2023/04/11 06:24:53;;;;;;;6.60;0.63;;;;;;;8.21;100.00;98588.91;4956604;28;20027;-65
2023/04/11 06:27:18;;;;;;;2.25;0.60;;;;;;;8.13;100.00;98579.09;4970050;28;20483;-65
2023/04/11 06:29:44;;;;;;;3.28;0.77;;;;;;;8.19;100.00;98581.00;4973648;28;20018;-65
2023/04/11 06:32:10;;;;;;;6.75;1.45;;;;;;;8.34;100.00;98586.31;4979244;28;20027;-66
2023/04/11 06:34:37;;;;;;;3.60;0.63;;;;;;;8.37;100.00;98579.72;4959530;28;20031;-66
2023/04/11 06:37:05;;;;;;;1.55;0.47;;;;;;;8.35;100.00;98569.94;4968361;28;20025;-66
2023/04/11 06:39:31;;;;;;;1.95;0.88;;;;;;;8.34;100.00;98589.00;4956007;28;20110;-66
2023/04/11 06:41:56;;;;;;;3.67;0.60;;;;;;;8.55;100.00;98578.22;4973841;28;20025;-66
2023/04/11 06:44:23;;;;;;;2.20;0.40;;;;;;;8.79;100.00;98581.50;4967397;28;20174;-66
2023/04/11 06:46:49;;;;;;;2.97;0.38;;;;;;;8.73;100.00;98561.56;4971237;28;20114;-66
2023/04/11 06:49:18;;;;;;;0.88;0.40;;;;;;;8.99;100.00;98585.16;4961653;28;20549;-65
2023/04/11 06:51:48;;;;;;;3.72;0.47;;;;;;;9.14;100.00;98585.06;4990833;28;20085;-65
2023/04/11 06:54:15;;;;;;;1.73;0.52;;;;;;;9.31;100.00;98590.09;4979841;28;20042;-65
2023/04/11 06:56:41;;;;;;;2.72;0.50;;;;;;;9.69;100.00;98587.75;4969470;28;20019;-65
2023/04/11 06:59:07;;;;;;;2.15;0.38;;;;;;;9.99;100.00;98587.44;4968417;28;20093;-66
2023/04/11 07:01:36;;;;;;;2.70;0.50;;;;;;;10.58;100.00;98607.47;4971889;28;20031;-66
2023/04/11 07:04:02;;;;;;;0.75;0.28;;;;;;;10.06;100.00;98596.38;4973833;28;20410;-66
2023/04/11 07:06:28;;;;;;;1.63;0.38;;;;;;;9.98;100.00;98592.00;4976201;28;20486;-66
2023/04/11 07:08:53;;;;;;;3.15;0.50;;;;;;;10.34;100.00;98607.03;4973804;28;20109;-66
2023/04/11 07:11:19;;;;;;;5.57;0.82;;;;;;;10.28;100.00;98600.59;4974326;28;20410;-66
2023/04/11 07:13:44;;;;;;;6.07;0.63;;;;;;;10.55;100.00;98608.72;4954338;28;20027;-65
2023/04/11 07:16:10;;;;;;;5.53;0.60;;;;;;;10.57;100.00;98611.22;4969138;28;20396;-65
2023/04/11 07:18:35;;;;;;;2.65;0.40;;;;;;;10.08;100.00;98635.66;4973040;28;20057;-65
2023/04/11 07:21:00;;;;;;;3.85;0.50;;;;;;;10.40;100.00;98632.44;4973320;28;20030;-66
2023/04/11 07:23:29;;;;;;;2.47;0.70;;;;;;;10.18;100.00;98637.16;4970134;28;20027;-65
2023/04/11 07:25:54;;;;;;;2.77;0.73;;;;;;;11.98;100.00;98629.66;4964949;28;20058;-66
2023/04/11 07:28:20;;;;;;;1.80;0.47;;;;;;;13.43;100.00;98632.25;4969088;28;20101;-66
2023/04/11 07:30:46;;;;;;;4.70;1.10;;;;;;;12.53;100.00;98624.50;4969868;28;20058;-67
2023/04/11 07:33:11;;;;;;;5.65;0.52;;;;;;;12.56;100.00;98632.19;4958741;28;20091;-65
2023/04/11 07:35:37;;;;;;;5.20;0.70;;;;;;;13.15;100.00;98627.28;4965308;28;20027;-66
2023/04/11 07:38:03;;;;;;;3.55;0.50;;;;;;;12.98;100.00;98628.94;4956128;28;20699;-66
2023/04/11 07:40:29;;;;;;;2.42;1.05;;;;;;;12.93;100.00;98632.31;4966779;28;20486;-66
2023/04/11 07:42:55;;;;;;;1.77;0.50;;;;;;;13.04;100.00;98628.84;4952312;28;20046;-65
2023/04/11 07:45:20;;;;;;;1.73;0.50;;;;;;;15.53;100.00;98619.41;4970516;28;20371;-65
2023/04/11 07:47:46;;;;;;;3.92;0.70;;;;;;;16.55;100.00;98622.50;4954479;28;20027;-65
2023/04/11 07:50:12;;;;;;;4.90;0.63;;;;;;;16.67;100.00;98628.72;4984315;28;20394;-65
2023/04/11 07:52:37;;;;;;;2.70;0.70;;;;;;;16.47;100.00;98622.91;4970113;28;20019;-65
2023/04/11 07:55:03;;;;;;;1.98;0.60;;;;;;;16.49;100.00;98627.06;4955394;28;20034;-67
2023/04/11 07:57:29;;;;;;;4.70;0.82;;;;;;;15.63;100.00;98616.09;4968253;28;20027;-66
2023/04/11 07:59:56;;;;;;;2.53;0.60;;;;;;;14.99;100.00;98607.88;4972387;28;20030;-66
2023/04/11 08:02:22;;;;;;;5.50;0.82;;;;;;;13.46;100.00;98622.81;4971025;28;20117;-66
2023/04/11 08:04:47;;;;;;;5.63;0.70;;;;;;;13.74;100.00;98633.97;4973858;28;20490;-66
2023/04/11 08:07:14;;;;;;;4.72;0.90;;;;;;;13.66;100.00;98626.13;4964651;28;20110;-58
2023/04/11 08:09:41;;;;;;;5.72;0.80;;;;;;;15.28;100.00;98614.25;4956099;28;20030;-67
2023/04/11 08:12:07;;;;;;;4.25;0.80;;;;;;;15.30;100.00;98611.25;4959694;28;20030;-66
2023/04/11 08:14:36;;;;;;;3.10;0.70;;;;;;;16.13;100.00;98620.09;4980392;28;20035;-66
2023/04/11 08:17:01;;;;;;;3.25;0.80;;;;;;;16.36;97.69;98622.72;4973020;28;20035;-66
2023/04/11 08:19:27;;;;;;;4.65;0.70;;;;;;;16.64;94.32;98619.13;4980186;28;20030;-66
2023/04/11 08:21:52;;;;;;;3.38;0.60;;;;;;;16.74;94.12;98625.81;4976514;28;20463;-66
2023/04/11 08:24:18;;;;;;;6.57;0.90;;;;;;;15.44;99.26;98620.03;4958225;28;20058;-66
2023/04/11 08:26:44;;;;;;;4.93;0.75;;;;;;;16.01;100.00;98633.81;4975967;28;20113;-65
2023/04/11 08:29:11;;;;;;;4.80;0.82;;;;;;;15.81;100.00;98634.22;4976231;28;20491;-65
2023/04/11 08:31:40;;;;;;;3.75;0.85;;;;;;;16.05;95.38;98645.88;4976429;28;20023;-66
2023/04/11 08:34:07;;;;;;;5.78;0.93;;;;;;;15.90;91.54;98634.66;4980442;28;20168;-66
2023/04/11 08:36:32;;;;;;;3.75;0.63;;;;;;;16.25;87.46;98631.81;4972814;28;20085;-66
2023/04/11 08:38:59;;;;;;;6.15;1.50;;;;;;;16.74;82.82;98645.81;4988105;28;20105;-65
2023/04/11 08:41:29;;;;;;;4.47;0.88;;;;;;;17.37;76.21;98648.44;4958294;28;20487;-65
2023/04/11 08:43:55;;;;;;;3.50;0.93;;;;;;;19.54;63.24;98638.34;4976677;28;20113;-65
2023/04/11 08:46:25;;;;;;;7.22;0.80;;;;;;;19.27;60.06;98643.94;4975529;28;20082;-65
2023/04/11 08:48:51;;;;;;;6.20;0.68;;;;;;;22.01;54.80;98630.06;4987023;28;20426;-66
2023/04/11 08:51:25;;;;;;;3.58;0.77;;;;;;;23.88;46.31;98632.72;4977579;28;20030;-65
2023/04/11 08:53:53;;;;;;;2.20;0.80;;;;;;;24.69;45.79;98632.75;4970749;28;20433;-66
2023/04/11 08:56:19;;;;;;;5.20;0.77;;;;;;;24.25;45.69;98626.44;4977899;28;20023;-68
2023/04/11 08:58:45;;;;;;;4.47;0.90;;;;;;;22.47;47.67;98640.84;4974831;28;20073;-67
2023/04/11 09:01:31;;;;;;;3.03;0.70;;;;;;;24.55;45.88;98632.69;4980597;28;20035;-66
2023/04/11 09:03:59;;;;;;;4.68;0.82;;;;;;;24.39;43.65;98645.03;4974601;28;20035;-66
2023/04/11 09:06:33;;;;;;;3.78;0.90;;;;;;;26.00;42.54;98644.56;4973608;28;20034;-66
2023/04/11 09:08:59;;;;;;;6.13;0.90;;;;;;;27.03;39.19;98642.28;4956539;28;20037;-66
2023/04/11 09:11:26;;;;;;;3.28;0.70;;;;;;;22.97;43.32;98640.78;4976396;28;20041;-66
2023/04/11 09:14:08;;;;;;;4.95;0.63;;;;;;;21.23;46.34;98656.13;4972435;28;20094;-66
2023/04/11 09:16:34;;;;;;;5.32;1.08;;;;;;;18.26;52.11;98661.09;4968802;28;20027;-68
2023/04/11 09:19:00;;;;;;;3.55;0.90;;;;;;;15.96;57.95;98658.25;4971910;28;20504;-66
2023/04/11 09:21:28;;;;;;;5.72;1.00;;;;;;;17.14;60.21;98672.16;4989909;28;20436;-66
2023/04/11 09:23:54;;;;;;;3.15;0.80;;;;;;;15.70;64.19;98662.34;4973386;28;20067;-64
2023/04/11 09:26:28;;;;;;;3.03;0.60;;;;;;;16.80;73.38;98653.03;4970572;28;20042;-67
2023/04/11 09:28:53;;;;;;;3.78;0.70;;;;;;;16.15;74.00;98651.53;4971919;28;20041;-66
2023/04/11 09:31:20;;;;;;;5.28;0.73;;;;;;;15.27;79.10;98658.09;4976148;28;20034;-67
2023/04/11 09:33:53;;;;;;;2.22;0.57;;;;;;;19.43;63.15;98645.69;4970883;28;20023;-66
2023/04/11 09:36:21;;;;;;;3.55;0.55;;;;;;;20.75;56.01;98641.84;4944152;28;20031;-64
2023/04/11 09:38:47;;;;;;;3.30;0.70;;;;;;;20.46;55.36;98638.75;4960354;28;20019;-64
2023/04/11 09:41:12;;;;;;;6.05;1.08;;;;;;;21.93;50.97;98647.19;4961475;28;20049;-67
2023/04/11 09:43:54;;;;;;;3.60;0.70;;;;;;;20.80;54.31;98657.47;4972311;28;20023;-65
2023/04/11 09:46:20;;;;;;;6.75;0.77;;;;;;;23.44;49.04;98649.50;4988077;28;20030;-65
2023/04/11 09:48:49;;;;;;;3.42;0.60;;;;;;;23.32;46.43;98647.13;4987301;28;20030;-65
2023/04/11 09:51:16;;;;;;;4.50;0.95;;;;;;;22.75;44.17;98649.50;4977608;28;20030;-67
2023/04/11 09:53:42;;;;;;;4.50;0.75;;;;;;;22.90;45.91;98662.38;4994120;23;20043;-75
2023/04/11 09:56:08;;;;;;;3.72;0.73;;;;;;;23.88;45.21;98659.53;4993965;28;20065;-72
2023/04/11 09:58:35;;;;;;;6.65;1.15;;;;;;;23.41;43.73;98609.47;5020609;28;20030;-71
2023/04/11 10:01:02;;;;;;;3.72;0.75;;;;;;;23.51;41.85;98628.69;5011424;28;20167;-72
2023/04/11 10:03:33;;;;;;;3.50;0.77;;;;;;;20.56;46.28;98644.25;5009550;28;20075;-71
2023/04/11 10:06:01;;;;;;;3.25;0.73;;;;;;;19.89;50.84;98667.13;4992513;28;20058;-72
2023/04/11 10:08:31;;;;;;;7.88;0.98;;;;;;;23.92;44.90;98647.63;4974544;28;20535;-71
2023/04/11 10:10:58;;;;;;;5.00;0.80;;;;;;;23.41;43.00;98650.91;4990270;28;20042;-73
2023/04/11 10:13:39;;;;;;;3.80;0.90;;;;;;;22.93;41.35;98662.59;4992744;28;20090;-73
2023/04/11 10:16:09;;;;;;;2.38;0.60;;;;;;;20.26;46.96;98664.22;5004266;28;20061;-73
2023/04/11 10:18:57;;;;;;;3.53;0.80;;;;;;;21.05;46.27;98651.19;4999155;28;20034;-71
2023/04/11 10:21:29;;;;;;;3.70;0.82;;;;;;;26.22;40.56;98648.53;4982783;28;20034;-75
2023/04/11 10:24:13;;;;;;;6.50;0.70;;;;;;;26.27;37.95;98653.97;4972640;28;20030;-71
2023/04/11 10:26:56;;;;;;;6.07;0.82;;;;;;;26.39;36.71;98651.50;4992292;28;20141;-77
2023/04/11 10:29:44;;;;;;;2.67;0.75;;;;;;;26.37;36.45;98639.91;4973550;28;20117;-75
2023/04/11 10:32:12;;;;;;;2.50;0.50;;;;;;;26.51;35.47;98627.94;4993567;28;20034;-74
2023/04/11 10:34:40;;;;;;;1.73;0.52;;;;;;;24.93;36.63;98627.94;4976390;28;20165;-73
2023/04/11 10:37:08;;;;;;;5.03;0.80;;;;;;;25.69;36.27;98638.78;4992433;28;20037;-74
2023/04/11 10:39:48;;;;;;;5.70;0.75;;;;;;;23.14;37.93;98645.91;4972779;28;20032;-72
2023/04/11 10:42:30;;;;;;;5.07;1.20;;;;;;;20.93;41.34;98658.88;4997331;28;20026;-74
2023/04/11 10:45:20;;;;;;;3.20;0.70;;;;;;;17.35;45.03;98669.75;4970070;28;20065;-74
2023/04/11 10:47:55;;;;;;;4.30;0.65;;;;;;;17.81;45.04;98654.81;4972940;28;20026;-74
2023/04/11 10:50:26;;;;;;;3.38;0.80;;;;;;;22.87;40.30;98641.69;4992372;28;20500;-74
2023/04/11 10:52:52;;;;;;;4.75;0.98;;;;;;;24.47;37.16;98633.34;4989481;28;20022;-74
2023/04/11 10:55:18;;;;;;;2.50;0.45;;;;;;;22.25;39.05;98640.44;4970382;28;20034;-74
2023/04/11 10:58:07;;;;;;;3.33;0.57;;;;;;;21.90;39.43;98631.19;4989801;28;20483;-75
2023/04/11 11:00:50;;;;;;;2.75;0.70;;;;;;;22.67;38.39;98631.63;4990860;28;20447;-74
2023/04/11 11:03:30;;;;;;;2.58;0.52;;;;;;;24.00;36.32;98622.09;4983012;28;20551;-73
2023/04/11 11:06:07;;;;;;;5.78;0.63;;;;;;;22.96;37.25;98620.66;4992674;28;20050;-74
2023/04/11 11:08:33;;;;;;;4.18;0.90;;;;;;;21.02;40.88;98646.22;4990810;28;20448;-74
2023/04/11 11:11:01;;;;;;;3.40;1.00;;;;;;;19.91;43.08;98646.53;4999808;28;20041;-74
2023/04/11 11:13:38;;;;;;;4.90;0.70;;;;;;;18.21;44.49;98652.81;4989514;28;20026;-74
2023/04/11 11:16:05;;;;;;;5.05;0.60;;;;;;;18.07;45.27;98639.53;4987648;28;20038;-73
2023/04/11 11:18:30;;;;;;;4.75;0.60;;;;;;;17.56;45.59;98660.75;4974508;28;20066;-73
2023/04/11 11:20:55;;;;;;;4.28;0.75;;;;;;;16.76;47.32;98638.16;4997308;28;20175;-74
2023/04/11 11:23:21;;;;;;;4.97;1.10;;;;;;;16.09;47.96;98646.25;4975184;28;20026;-74
2023/04/11 11:25:57;;;;;;;6.47;0.55;;;;;;;15.09;51.64;98642.69;4991257;28;20063;-74
2023/04/11 11:28:23;;;;;;;2.45;1.20;;;;;;;15.82;52.55;98657.69;4985680;28;20445;-75
2023/04/11 11:30:50;;;;;;;6.00;0.65;;;;;;;17.82;47.40;98652.94;4971868;28;20034;-73
2023/04/11 11:33:18;;;;;;;6.88;0.80;;;;;;;20.48;44.41;98652.19;4993306;28;20025;-74
2023/04/11 11:36:04;;;;;;;3.80;0.80;;;;;;;21.58;39.94;98659.94;4993691;28;20554;-74